Time;durP1;ratioP1;P1;durP2;ratioP2;P2;SDS_P1;SDS_P2;PMS_P1;PMS_P2;Temp;Humidity;BMP_temperature;BMP_pressure;BME280_temperature;BME280_humidity;BME280_pressure;Samples;Min_cycle;Max_cycle;Signal;HPM_P1;HPM_P2
2022/06/09 00:04:29;;;;;;;8.63;7.78;;;;;;;21.35;63.74;99466.66;2066710;93;26613;-80
2022/06/09 00:08:10;;;;;;;;;;;;;;;;;;;;;
2022/06/09 00:11:53;;;;;;;7.05;6.47;;;;;;;21.49;63.57;99467.95;2072027;93;25659;-81
2022/06/09 00:15:29;;;;;;;7.55;6.85;;;;;;;21.51;63.44;99464.80;2086966;91;25814;-80
2022/06/09 00:19:22;;;;;;;8.08;7.25;;;;;;;21.50;63.42;99452.44;2149003;91;25670;-80
2022/06/09 00:23:24;;;;;;;;;;;;;;;;;;;;;
2022/06/09 00:26:48;;;;;;;7.42;6.72;;;;;;;21.45;63.42;99462.75;2162490;90;25905;-80
2022/06/09 00:30:24;;;;;;;11.05;6.60;;;;;;;21.45;63.41;99479.12;2153841;90;26021;-79
2022/06/09 00:33:59;;;;;;;7.00;6.50;;;;;;;21.39;63.41;99476.22;2169752;90;26095;-82
2022/06/09 00:37:29;;;;;;;9.70;7.30;;;;;;;21.37;63.45;99475.43;2171120;90;25864;-84
2022/06/09 00:41:14;;;;;;;7.40;6.80;;;;;;;21.42;63.44;99477.91;2150564;90;25812;-84
2022/06/09 00:45:53;;;;;;;;;;;;;;;;;;;;;
2022/06/09 00:49:49;;;;;;;7.60;6.80;;;;;;;21.42;63.39;99478.77;2146977;90;25937;-81
2022/06/09 00:53:45;;;;;;;8.13;6.67;;;;;;;21.41;63.54;99478.38;2071921;92;25804;-83
2022/06/09 00:57:39;;;;;;;6.85;6.35;;;;;;;21.40;63.47;99486.40;2080061;93;25948;-82
2022/06/09 01:01:18;;;;;;;7.10;6.50;;;;;;;21.37;63.49;99501.08;2184059;87;25770;-83
2022/06/09 01:04:56;;;;;;;6.53;6.12;;;;;;;21.37;63.59;99497.11;2178935;88;25749;-80
2022/06/09 01:08:23;;;;;;;6.90;6.40;;;;;;;21.34;63.61;99505.13;2163931;90;26157;-82
2022/06/09 01:16:20;;;;;;;9.78;7.10;;;;;;;21.27;63.77;99509.78;2134710;89;25778;-79
2022/06/09 01:20:44;;;;;;;7.33;6.78;;;;;;;21.20;63.95;99514.41;2137933;90;25951;-81
2022/06/09 01:24:43;;;;;;;8.08;7.30;;;;;;;21.27;64.08;99508.91;2148178;90;25779;-82
2022/06/09 01:29:04;;;;;;;8.28;7.58;;;;;;;21.19;64.05;99514.45;2128091;91;25737;-83
2022/06/09 01:32:49;;;;;;;8.35;7.75;;;;;;;21.11;64.35;99509.42;2198475;89;25868;-81
2022/06/09 01:36:29;;;;;;;8.20;7.60;;;;;;;21.11;64.38;99519.16;2217819;84;25321;-82
2022/06/09 01:40:25;;;;;;;8.53;7.85;;;;;;;21.11;64.52;99518.69;2254939;86;25842;-80
2022/06/09 01:48:35;;;;;;;7.62;6.90;;;;;;;21.07;64.69;99498.52;2231499;83;26159;-82
2022/06/09 01:52:03;;;;;;;7.20;6.70;;;;;;;21.09;64.73;99494.48;2235411;87;25771;-80
2022/06/09 02:00:13;;;;;;;10.28;7.40;;;;;;;21.20;64.62;99476.45;2159376;88;25737;-80
2022/06/09 02:04:14;;;;;;;;;;;;;;;;;;;;;
2022/06/09 02:07:51;;;;;;;8.45;7.80;;;;;;;21.20;64.63;99467.17;2108164;91;25753;-80
2022/06/09 02:11:21;;;;;;;9.10;8.38;;;;;;;21.19;64.63;99472.94;2109623;91;25660;-80
2022/06/09 02:15:03;;;;;;;8.25;7.65;;;;;;;21.19;64.75;99468.96;2115433;91;25762;-79
2022/06/09 02:19:05;;;;;;;8.60;7.83;;;;;;;21.22;64.75;99467.96;2073536;92;25943;-80
2022/06/09 02:22:46;;;;;;;8.35;7.75;;;;;;;21.16;64.87;99459.78;2036530;95;26209;-80
2022/06/09 02:26:22;;;;;;;8.63;7.78;;;;;;;21.19;65.01;99453.48;2036896;95;25868;-80
2022/06/09 02:30:17;;;;;;;;;;;;;;;;;;;;;
2022/06/09 02:37:49;;;;;;;9.48;8.68;;;;;;;21.22;65.01;99467.96;1977240;97;26223;-81
2022/06/09 02:41:36;;;;;;;11.08;9.50;;;;;;;21.12;65.18;99468.73;1987105;97;26086;-81
2022/06/09 02:49:26;;;;;;;9.00;8.23;;;;;;;21.18;65.29;99465.02;2044285;94;25891;-79
2022/06/09 02:57:01;;;;;;;10.08;9.18;;;;;;;21.31;65.30;99446.45;2066798;92;26057;-80
2022/06/09 03:01:05;;;;;;;10.20;9.20;;;;;;;21.37;65.16;99453.36;1978778;97;26013;-82
2022/06/09 03:05:25;;;;;;;11.57;10.30;;;;;;;21.34;65.00;99456.08;1954644;96;25917;-83
2022/06/09 03:09:06;;;;;;;10.72;9.73;;;;;;;21.32;65.00;99452.61;2017080;95;26354;-79
2022/06/09 03:12:51;;;;;;;12.13;10.93;;;;;;;21.35;65.17;99452.53;2039070;94;25647;-83
2022/06/09 03:16:19;;;;;;;12.18;11.08;;;;;;;21.36;65.02;99453.83;2041866;92;25720;-81
2022/06/09 03:20:31;;;;;;;21.85;13.80;;;;;;;21.32;65.26;99462.75;2130596;91;25747;-80
2022/06/09 03:24:39;;;;;;;11.85;10.65;;;;;;;21.34;65.23;99453.00;2100397;91;25830;-79
2022/06/09 03:28:51;;;;;;;13.62;12.25;;;;;;;21.38;65.21;99455.94;2077949;92;25867;-80
2022/06/09 03:32:29;;;;;;;11.83;10.72;;;;;;;21.46;65.04;99447.70;2085798;93;25841;-81
2022/06/09 03:36:09;;;;;;;16.57;10.50;;;;;;;21.49;65.02;99431.69;2084343;89;25753;-80
2022/06/09 03:39:44;;;;;;;11.10;10.00;;;;;;;21.45;64.82;99431.40;2166997;89;25679;-82
2022/06/09 03:43:13;;;;;;;10.63;9.93;;;;;;;21.44;64.96;99432.33;2131280;90;25868;-81
2022/06/09 03:46:40;;;;;;;12.28;11.28;;;;;;;21.39;64.80;99443.55;2219090;86;26385;-79
2022/06/09 03:50:32;;;;;;;12.58;11.28;;;;;;;21.15;64.96;99451.41;2226616;86;25874;-79
2022/06/09 03:54:16;;;;;;;10.00;9.08;;;;;;;21.05;65.33;99441.18;2224050;86;25738;-80
2022/06/09 04:02:27;;;;;;;10.10;9.30;;;;;;;21.12;65.58;99432.95;2261285;86;25826;-80
2022/06/09 04:06:21;;;;;;;10.43;9.65;;;;;;;21.22;65.49;99421.58;2262600;86;25906;-80
2022/06/09 04:09:44;;;;;;;13.62;12.37;;;;;;;21.23;65.40;99425.98;2258189;86;26173;-79
2022/06/09 04:13:17;;;;;;;14.87;11.68;;;;;;;21.22;65.37;99429.53;2253177;86;25896;-78
2022/06/09 04:17:07;;;;;;;12.88;11.65;;;;;;;21.22;65.46;99422.44;2253998;86;25846;-80
2022/06/09 04:24:41;;;;;;;11.68;10.60;;;;;;;21.31;65.45;99413.30;2232895;86;25808;-78
2022/06/09 04:28:21;;;;;;;14.30;12.63;;;;;;;21.33;65.43;99410.59;2182865;87;25761;-80
2022/06/09 04:35:50;;;;;;;12.53;11.25;;;;;;;21.51;65.37;99413.09;2125267;89;25788;-79
2022/06/09 04:43:26;;;;;;;13.90;12.30;;;;;;;21.63;65.21;99410.86;2139954;90;25883;-80
2022/06/09 04:47:35;;;;;;;13.58;11.75;;;;;;;21.78;65.06;99411.20;2135054;90;25854;-79
2022/06/09 04:51:21;;;;;;;;;;;;;;;;;;;;;
2022/06/09 04:55:30;;;;;;;12.30;11.03;;;;;;;21.96;64.87;99399.86;2099820;91;25846;-82
2022/06/09 04:59:25;;;;;;;;;;;;;;;;;;;;;
2022/06/09 05:03:12;;;;;;;10.30;9.33;;;;;;;22.11;64.57;99409.04;2023293;94;26394;-81
2022/06/09 05:07:28;;;;;;;10.95;10.05;;;;;;;22.23;64.45;99409.03;2083731;93;25581;-80
2022/06/09 05:11:46;;;;;;;;;;;;;;;;;;;;;
2022/06/09 05:15:26;;;;;;;10.98;9.93;;;;;;;22.31;64.01;99409.14;2026558;93;25725;-81
2022/06/09 05:19:06;;;;;;;11.15;10.15;;;;;;;22.38;63.63;99419.91;2036532;94;25789;-79
2022/06/09 05:26:41;;;;;;;;;;;;;;;;;;;;;
2022/06/09 05:30:21;;;;;;;12.50;10.63;;;;;;;22.64;63.10;99451.18;2012599;89;25861;-80
2022/06/09 05:33:57;;;;;;;12.73;11.48;;;;;;;22.64;63.04;99443.20;2186814;89;25504;-79
2022/06/09 05:50:03;;;;;;;13.18;11.00;;;;;;;23.27;62.48;99445.45;1830603;105;25992;-78
2022/06/09 05:58:07;;;;;;;12.13;10.95;;;;;;;23.69;61.23;99463.59;1818958;107;26161;-79
2022/06/09 06:01:50;;;;;;;10.23;9.23;;;;;;;23.75;61.40;99460.67;1821548;105;26353;-78
2022/06/09 06:08:47;;;;;;;10.18;9.45;;;;;;;23.95;60.95;99446.45;1750576;109;26753;-80
2022/06/09 06:12:31;;;;;;;12.93;9.93;;;;;;;24.10;60.66;99452.84;1775380;109;25936;-80
2022/06/09 06:16:08;;;;;;;11.48;9.98;;;;;;;24.12;60.34;99462.97;1823575;106;25774;-78
2022/06/09 06:19:41;;;;;;;10.98;9.98;;;;;;;24.15;60.13;99481.47;1881913;103;25893;-80
2022/06/09 06:23:18;;;;;;;10.90;8.80;;;;;;;24.01;59.72;99490.96;1858160;104;25816;-77
2022/06/09 06:27:06;;;;;;;20.75;9.18;;;;;;;23.97;60.30;99485.39;1948297;96;25852;-76
2022/06/09 06:30:42;;;;;;;10.53;9.20;;;;;;;24.34;60.36;99486.81;2010257;96;26392;-76
2022/06/09 06:34:16;;;;;;;14.33;9.03;;;;;;;24.78;60.27;99499.36;2036752;95;25402;-75
2022/06/09 06:37:39;;;;;;;10.23;8.98;;;;;;;25.18;59.97;99501.41;2016153;96;25840;-76
2022/06/09 06:41:19;;;;;;;13.55;9.05;;;;;;;25.52;59.73;99523.23;2024272;91;25830;-76
2022/06/09 06:45:15;;;;;;;9.83;7.80;;;;;;;25.77;59.27;99538.81;2137347;91;25922;-76
2022/06/09 06:49:30;;;;;;;8.93;8.03;;;;;;;26.15;58.90;99538.61;2125070;90;25743;-76
2022/06/09 06:53:02;;;;;;;10.45;9.43;;;;;;;26.65;57.65;99528.79;2083593;93;25799;-74
2022/06/09 06:56:34;;;;;;;9.23;8.28;;;;;;;26.94;56.04;99518.64;2091917;93;25778;-73
2022/06/09 07:00:42;;;;;;;8.70;7.90;;;;;;;26.83;55.79;99503.66;2050616;92;25889;-74
2022/06/09 07:04:22;;;;;;;8.85;8.33;;;;;;;26.65;55.37;99496.70;2023510;93;25510;-74
2022/06/09 07:08:05;;;;;;;9.05;8.25;;;;;;;26.40;55.40;99495.39;1956114;100;26431;-74
2022/06/09 07:11:28;;;;;;;12.15;9.70;;;;;;;26.21;55.55;99482.66;1944187;100;26504;-74
2022/06/09 07:14:53;;;;;;;11.38;9.78;;;;;;;26.04;55.96;99475.56;1912823;102;25415;-74
2022/06/09 07:18:35;;;;;;;;;;;;;;;;;;;;;
2022/06/09 07:22:17;;;;;;;10.55;9.55;;;;;;;26.61;56.13;99474.63;1884160;102;25896;-74
2022/06/09 07:25:44;;;;;;;9.90;9.20;;;;;;;26.83;55.88;99473.80;1875209;104;26224;-79
2022/06/09 07:29:17;;;;;;;10.53;9.33;;;;;;;26.98;55.44;99470.69;1913107;99;26106;-76
2022/06/09 07:32:41;;;;;;;13.00;9.15;;;;;;;27.27;55.23;99473.02;1966039;98;25799;-74
2022/06/09 07:36:25;;;;;;;10.50;8.50;;;;;;;27.60;54.79;99463.03;1948423;99;26103;-74
2022/06/09 07:39:46;;;;;;;10.10;8.83;;;;;;;27.89;54.42;99467.96;1998169;95;25735;-75
2022/06/09 07:43:28;;;;;;;10.08;9.18;;;;;;;28.02;53.70;99467.58;2056038;92;25902;-75
2022/06/09 07:46:48;;;;;;;9.43;8.83;;;;;;;28.22;53.18;99467.17;2170029;89;26202;-80
2022/06/09 07:50:22;;;;;;;9.10;8.40;;;;;;;28.51;52.73;99467.13;2174899;89;26077;-78
2022/06/09 07:53:50;;;;;;;15.35;8.90;;;;;;;28.78;52.29;99471.64;2120703;92;25747;-76
2022/06/09 07:57:19;;;;;;;12.45;7.92;;;;;;;29.01;51.68;99473.69;2114951;91;26034;-75
2022/06/09 08:01:10;;;;;;;8.20;7.60;;;;;;;29.28;51.01;99476.33;2131800;91;25852;-77
2022/06/09 08:05:09;;;;;;;7.60;7.10;;;;;;;29.45;50.35;99481.02;2161795;89;25842;-76
2022/06/09 08:08:30;;;;;;;8.90;8.10;;;;;;;29.55;49.77;99481.62;2157493;90;25687;-82
2022/06/09 08:12:09;;;;;;;9.90;8.90;;;;;;;29.36;49.76;99487.41;2141287;90;25578;-77
2022/06/09 08:15:37;;;;;;;8.65;7.92;;;;;;;29.12;49.79;99487.72;2141871;90;25838;-79
2022/06/09 08:19:51;;;;;;;9.85;8.03;;;;;;;28.95;49.70;99489.67;2189149;86;25940;-78
2022/06/09 08:23:23;;;;;;;9.88;8.88;;;;;;;28.86;49.98;99485.42;2189457;87;25420;-77
2022/06/09 08:32:22;;;;;;;10.93;7.65;;;;;;;29.15;49.31;99480.31;2101947;92;25780;-77
2022/06/09 08:35:25;;;;;;;7.42;6.92;;;;;;;29.31;49.06;99478.80;2056085;93;25865;-77
2022/06/09 08:39:17;;;;;;;7.35;6.65;;;;;;;29.62;48.28;99473.53;2062926;92;26116;-80
2022/06/09 08:42:50;;;;;;;7.30;6.50;;;;;;;29.73;47.92;99484.02;1977871;96;25820;-76
2022/06/09 08:46:49;;;;;;;7.00;6.47;;;;;;;29.63;47.72;99482.45;2009430;96;25464;-77
2022/06/09 08:51:13;;;;;;;8.48;7.85;;;;;;;29.57;48.08;99498.98;1940775;100;25815;-79
2022/06/09 08:54:46;;;;;;;7.33;6.72;;;;;;;29.65;47.89;99504.22;1940500;99;25890;-79
2022/06/09 09:03:15;;;;;;;6.90;6.35;;;;;;;29.84;47.86;99498.92;1879585;103;26031;-79
2022/06/09 09:07:15;;;;;;;8.58;7.22;;;;;;;29.84;47.72;99507.83;1853533;104;26643;-79
2022/06/09 09:11:03;;;;;;;7.90;7.10;;;;;;;29.71;48.21;99528.46;1836096;106;25671;-79
2022/06/09 09:24:11;;;;;;;11.20;9.90;;;;;;;29.45;48.13;99518.13;1860620;102;26005;-79
2022/06/09 09:27:50;;;;;;;12.73;9.23;;;;;;;29.21;48.66;99509.06;1850445;104;26547;-78
2022/06/09 09:32:19;;;;;;;16.23;10.15;;;;;;;29.21;49.10;99501.02;1844304;106;25917;-79
2022/06/09 09:36:07;;;;;;;16.07;10.60;;;;;;;29.22;49.34;99504.06;1832139;106;26347;-79
2022/06/09 09:40:23;;;;;;;11.35;9.70;;;;;;;29.44;49.40;99502.14;1876002;98;25747;-78
2022/06/09 09:48:08;;;;;;;11.78;10.70;;;;;;;29.26;49.46;99497.06;1867801;103;25694;-79
2022/06/09 09:51:55;;;;;;;;;;;;;;;;;;;;;
2022/06/09 09:55:49;;;;;;;11.48;10.30;;;;;;;29.24;49.91;99492.75;1935016;100;26060;-79
2022/06/09 09:59:56;;;;;;;12.65;10.40;;;;;;;29.37;49.88;99494.98;1971597;95;25866;-78
2022/06/09 10:18:24;;;;;;;15.03;10.95;;;;;;;30.24;49.17;99487.56;2139394;89;25863;-78
2022/06/09 10:27:02;;;;;;;10.13;9.33;;;;;;;30.88;47.92;99482.45;2205879;86;25966;-79
2022/06/09 10:31:21;;;;;;;;;;;;;;;;;;;;;
2022/06/09 10:40:05;;;;;;;;;;;;;;;;;;;;;
2022/06/09 10:57:34;;;;;;;6.00;5.55;;;;;;;31.51;44.95;99468.63;2122110;90;26370;-80
2022/06/09 11:01:14;;;;;;;7.58;6.10;;;;;;;31.75;45.12;99460.95;2154163;90;25736;-79
2022/06/09 11:04:48;;;;;;;10.13;5.85;;;;;;;31.96;44.31;99469.20;2084295;93;25688;-80
2022/06/09 11:13:20;;;;;;;8.35;5.92;;;;;;;32.17;44.24;99466.14;2065483;92;25893;-80
2022/06/09 11:17:43;;;;;;;9.23;5.83;;;;;;;32.34;44.31;99463.92;2013531;96;25837;-80
2022/06/09 11:22:04;;;;;;;6.08;5.58;;;;;;;32.49;44.22;99457.28;1975599;97;25804;-78
2022/06/09 11:40:28;;;;;;;10.72;5.05;;;;;;;33.01;41.93;99451.63;2046689;94;25805;-77
2022/06/09 11:52:38;;;;;;;5.87;4.75;;;;;;;33.20;41.43;99419.00;1838725;105;25993;-77
2022/06/09 11:57:06;;;;;;;7.87;5.03;;;;;;;33.30;41.23;99424.81;1865274;103;25917;-78
2022/06/09 12:00:49;;;;;;;4.85;4.47;;;;;;;33.38;40.98;99407.47;1865893;104;25918;-78
2022/06/09 12:05:29;;;;;;;;;;;;;;;;;;;;;
2022/06/09 12:13:12;;;;;;;4.92;4.55;;;;;;;33.67;39.92;99381.60;1745639;110;26060;-79
2022/06/09 12:17:52;;;;;;;;;;;;;;;;;;;;;
2022/06/09 12:21:39;;;;;;;4.75;4.30;;;;;;;33.98;39.43;99373.80;1814059;106;26015;-78
2022/06/09 12:26:09;;;;;;;4.65;3.98;;;;;;;33.92;38.79;99381.61;1807533;106;25608;-79
2022/06/09 12:29:43;;;;;;;7.55;4.17;;;;;;;33.84;38.81;99378.25;1838139;105;25835;-79
2022/06/09 12:34:08;;;;;;;5.35;3.72;;;;;;;34.06;38.46;99371.82;1817442;107;27108;-79
2022/06/09 12:37:52;;;;;;;6.83;4.22;;;;;;;34.06;37.57;99369.11;1821650;106;25916;-77
2022/06/09 12:41:47;;;;;;;7.35;4.22;;;;;;;33.67;37.83;99377.55;1823613;106;35394;-78
2022/06/09 12:45:28;;;;;;;6.42;3.50;;;;;;;33.46;37.96;99370.31;1806351;105;26531;-75
2022/06/09 12:53:34;;;;;;;3.70;2.83;;;;;;;33.61;36.43;99381.14;1795103;108;25799;-78
2022/06/09 12:57:52;;;;;;;6.30;2.98;;;;;;;33.95;34.50;99381.34;1842815;98;25858;-79
2022/06/09 13:05:37;;;;;;;5.03;3.05;;;;;;;34.29;33.98;99388.64;1797408;108;26273;-78
2022/06/09 13:09:31;;;;;;;4.30;3.75;;;;;;;34.34;33.66;99387.73;1786190;107;26176;-77
2022/06/09 13:13:47;;;;;;;6.95;3.42;;;;;;;34.51;34.04;99384.36;1773974;109;25932;-78
2022/06/09 13:17:49;;;;;;;4.65;3.42;;;;;;;34.87;34.42;99381.11;1775678;109;25941;-78
2022/06/09 13:21:41;;;;;;;12.13;4.80;;;;;;;35.01;34.22;99378.83;1786799;105;26479;-77
2022/06/09 13:25:27;;;;;;;3.50;3.20;;;;;;;34.75;34.02;99387.15;1851824;105;25952;-77
2022/06/09 13:29:04;;;;;;;7.28;2.85;;;;;;;34.31;33.53;99380.75;1845505;105;26503;-78
2022/06/09 13:32:50;;;;;;;7.20;3.12;;;;;;;34.06;32.76;99377.23;1821266;106;25964;-78
2022/06/09 13:48:31;;;;;;;5.10;3.12;;;;;;;32.56;33.67;99367.25;1969976;97;26084;-78
2022/06/09 14:01:15;;;;;;;6.12;4.30;;;;;;;31.97;36.66;99370.70;1936896;101;25829;-79
2022/06/09 14:04:40;;;;;;;4.75;4.28;;;;;;;31.88;37.83;99375.48;1912171;100;26411;-79
2022/06/09 14:08:38;;;;;;;;;;;;;;;;;;;;;
2022/06/09 14:20:32;;;;;;;6.00;4.03;;;;;;;30.71;40.90;99355.89;1830776;105;25816;-79
2022/06/09 14:24:05;;;;;;;4.85;4.15;;;;;;;30.69;41.26;99367.27;1845214;105;26257;-78
2022/06/09 14:27:34;;;;;;;8.98;4.55;;;;;;;30.42;41.75;99367.52;1837051;105;26426;-80
2022/06/09 14:30:56;;;;;;;11.00;4.60;;;;;;;30.05;42.44;99371.06;1842716;105;25827;-78
2022/06/09 14:35:13;;;;;;;;;;;;;;;;;;;;;
2022/06/09 14:39:08;;;;;;;7.83;4.90;;;;;;;29.59;43.76;99378.86;1806064;106;26077;-79
2022/06/09 14:42:36;;;;;;;5.35;4.87;;;;;;;29.38;44.34;99367.33;1805172;105;25789;-80
2022/06/09 14:46:13;;;;;;;5.03;4.58;;;;;;;29.24;44.94;99373.30;1874368;102;26166;-78
2022/06/09 14:50:07;;;;;;;9.43;6.58;;;;;;;29.06;45.54;99375.41;1866444;104;26218;-80
2022/06/09 14:53:48;;;;;;;8.30;5.37;;;;;;;28.97;46.13;99394.33;1954423;97;26010;-78
2022/06/09 15:01:52;;;;;;;4.65;4.25;;;;;;;29.05;46.79;99401.88;1969049;98;25863;-79
2022/06/09 15:05:20;;;;;;;8.65;5.03;;;;;;;29.02;46.84;99414.16;1959740;98;25935;-78
2022/06/09 15:08:58;;;;;;;4.72;4.42;;;;;;;28.85;47.51;99413.93;1972825;97;25842;-78
2022/06/09 15:12:30;;;;;;;5.40;4.22;;;;;;;28.68;47.96;99405.67;1885273;102;25887;-78
2022/06/09 15:16:34;;;;;;;;;;;;;;;;;;;;;
2022/06/09 15:20:04;;;;;;;7.77;4.93;;;;;;;28.35;49.00;99412.30;1895912;100;26283;-77
2022/06/09 15:23:24;;;;;;;11.65;4.78;;;;;;;28.23;49.49;99421.13;1979060;99;25864;-78
2022/06/09 15:27:22;;;;;;;;;;;;;;;;;;;;;
2022/06/09 15:30:46;;;;;;;9.20;5.35;;;;;;;27.99;49.36;99412.84;1979957;98;25817;-78
2022/06/09 15:34:22;;;;;;;9.30;5.92;;;;;;;27.85;48.74;99405.69;1983471;98;25849;-78
2022/06/09 15:37:56;;;;;;;6.47;4.37;;;;;;;27.77;48.13;99411.98;1975711;99;26542;-78
2022/06/09 15:41:32;;;;;;;6.58;4.95;;;;;;;27.75;47.56;99416.09;1977393;98;25860;-77
2022/06/09 15:45:08;;;;;;;7.22;4.85;;;;;;;27.70;47.22;99426.20;1963606;99;26167;-78
2022/06/09 15:48:45;;;;;;;5.12;4.17;;;;;;;27.63;46.94;99430.23;2001529;93;25917;-79
2022/06/09 15:52:37;;;;;;;5.58;4.28;;;;;;;27.59;46.43;99428.70;2254909;85;25847;-78
2022/06/09 15:56:14;;;;;;;6.37;4.45;;;;;;;27.54;46.27;99423.64;2209375;89;25731;-79
2022/06/09 15:59:46;;;;;;;8.50;3.72;;;;;;;27.46;46.26;99429.93;2036838;94;25931;-78
2022/06/09 16:07:38;;;;;;;6.92;4.53;;;;;;;27.24;46.50;99432.21;2039799;95;25745;-78
2022/06/09 16:11:32;;;;;;;;;;;;;;;;;;;;;
2022/06/09 16:14:39;;;;;;;9.28;5.45;;;;;;;26.78;47.50;99439.77;1990374;96;25987;-75
2022/06/09 16:18:10;;;;;;;11.85;7.70;;;;;;;26.72;47.90;99449.95;2018806;96;25319;-75
2022/06/09 16:21:42;;;;;;;10.90;7.90;;;;;;;26.76;48.24;99440.80;2015433;96;26056;-75
2022/06/09 16:25:16;;;;;;;7.75;7.00;;;;;;;26.80;48.49;99441.88;2028300;96;26182;-75
2022/06/09 16:28:43;;;;;;;11.73;5.95;;;;;;;26.82;48.13;99450.66;2009000;96;25794;-75
2022/06/09 16:32:09;;;;;;;4.72;4.08;;;;;;;26.77;47.66;99440.72;1995969;98;26584;-75
2022/06/09 16:35:44;;;;;;;7.58;3.27;;;;;;;26.68;47.38;99452.42;2016538;97;26278;-75
2022/06/09 16:39:06;;;;;;;5.87;3.37;;;;;;;26.57;47.20;99454.38;1972576;98;25958;-74
2022/06/09 16:42:34;;;;;;;3.45;3.15;;;;;;;26.53;47.18;99449.69;2002921;98;25806;-75
2022/06/09 16:45:55;;;;;;;3.77;3.00;;;;;;;26.53;47.21;99454.17;2041434;95;26278;-76
2022/06/09 16:49:26;;;;;;;5.72;3.10;;;;;;;26.52;47.14;99463.97;1999661;95;25768;-76
2022/06/09 16:52:57;;;;;;;5.42;3.47;;;;;;;26.55;47.12;99461.61;2026592;95;26066;-76
2022/06/09 16:56:18;;;;;;;5.65;3.37;;;;;;;26.57;47.01;99465.07;2110271;90;25778;-75
2022/06/09 16:59:53;;;;;;;5.22;3.30;;;;;;;26.64;46.92;99470.94;2263702;85;25624;-74
2022/06/09 17:03:15;;;;;;;4.37;3.33;;;;;;;26.69;46.84;99470.17;2292868;84;25953;-75
2022/06/09 17:06:46;;;;;;;5.65;3.37;;;;;;;26.76;46.61;99475.55;2294280;84;25713;-75
2022/06/09 17:10:19;;;;;;;6.08;2.77;;;;;;;26.80;46.54;99467.29;2274704;84;25775;-76
2022/06/09 17:13:47;;;;;;;6.28;3.22;;;;;;;26.85;46.45;99467.86;2332275;83;25735;-77
2022/06/09 17:17:20;;;;;;;9.58;2.87;;;;;;;26.91;46.32;99467.14;2332056;83;25730;-75
2022/06/09 17:20:49;;;;;;;6.45;2.75;;;;;;;26.79;46.30;99474.05;2343468;83;25682;-75
2022/06/09 17:24:11;;;;;;;9.10;3.83;;;;;;;26.64;46.54;99477.14;2319922;84;25758;-75
2022/06/09 17:27:35;;;;;;;3.92;2.95;;;;;;;26.66;46.72;99475.70;2401793;82;25776;-74
2022/06/09 17:31:09;;;;;;;4.50;3.08;;;;;;;26.74;46.84;99466.30;2377411;81;25814;-75
2022/06/09 17:34:49;;;;;;;8.48;3.50;;;;;;;26.84;46.95;99472.84;2377262;81;25700;-75
2022/06/09 17:38:11;;;;;;;6.15;3.15;;;;;;;26.89;46.95;99471.22;2333245;82;25677;-77
2022/06/09 17:41:48;;;;;;;8.18;3.75;;;;;;;26.92;47.09;99471.52;2377405;81;26367;-76
2022/06/09 17:45:17;;;;;;;10.32;3.75;;;;;;;26.92;47.25;99485.76;2402029;80;25759;-76
2022/06/09 17:48:54;;;;;;;;;;;;;;;;;;;;;
2022/06/09 17:52:15;;;;;;;9.88;3.80;;;;;;;26.96;47.88;99493.98;2308130;83;25767;-75
2022/06/09 17:55:42;;;;;;;;;;;;;;;26.95;48.21;99506.12;2354462;83;25883;-74
2022/06/09 17:59:08;;;;;;;6.95;3.55;;;;;;;26.85;48.72;99501.30;2340642;83;25820;-74
2022/06/09 18:02:54;;;;;;;4.05;3.65;;;;;;;26.77;48.76;99511.58;2245876;87;25776;-74
2022/06/09 18:06:16;;;;;;;6.35;4.15;;;;;;;26.71;49.07;99523.10;2215027;87;25265;-81
2022/06/09 18:09:43;;;;;;;5.28;3.83;;;;;;;26.64;49.87;99515.90;2182057;89;25912;-86
2022/06/09 18:13:29;;;;;;;9.13;3.58;;;;;;;26.61;50.44;99538.31;2120525;92;26141;-86
2022/06/09 18:17:34;;;;;;;5.80;4.60;;;;;;;26.52;51.13;99542.83;2102671;87;25445;-79
2022/06/09 18:21:20;;;;;;;4.62;4.12;;;;;;;26.47;51.32;99551.59;2056290;93;25858;-84
2022/06/09 18:29:01;;;;;;;7.75;5.17;;;;;;;26.31;51.86;99614.80;1896980;100;26259;-89
2022/06/09 18:32:37;;;;;;;11.25;4.42;;;;;;;25.79;52.77;99631.72;1855711;104;26043;-76
2022/06/09 18:36:06;;;;;;;5.40;4.50;;;;;;;25.66;53.76;99577.23;1864666;104;25799;-77
2022/06/09 18:39:35;;;;;;;;;;;;;;;25.84;53.93;99576.30;1870599;104;25800;-77
2022/06/09 18:43:06;;;;;;;5.58;4.15;;;;;;;25.95;54.34;99557.03;1869184;102;25994;-77
2022/06/09 18:46:41;;;;;;;6.95;4.17;;;;;;;26.07;54.03;99554.20;1869133;105;25744;-77
2022/06/09 18:50:18;;;;;;;4.90;3.77;;;;;;;26.23;53.97;99559.59;1899276;102;25935;-77
2022/06/09 18:53:47;;;;;;;5.17;3.90;;;;;;;26.36;53.82;99582.03;1892121;102;26089;-76
2022/06/09 18:57:14;;;;;;;4.12;3.70;;;;;;;26.44;53.65;99566.42;1890794;102;25858;-77
2022/06/09 19:00:40;;;;;;;4.87;3.85;;;;;;;26.50;53.57;99563.45;1925290;100;25453;-76
2022/06/09 19:04:35;;;;;;;5.53;3.98;;;;;;;26.56;53.47;99570.25;1881506;103;44510;-76
2022/06/09 19:12:11;;;;;;;7.28;4.10;;;;;;;26.64;53.46;99592.58;1862630;104;26480;-76
2022/06/09 19:15:50;;;;;;;4.97;4.58;;;;;;;26.62;53.54;99585.95;1853534;102;25843;-76
2022/06/09 19:19:29;;;;;;;6.83;4.03;;;;;;;26.63;53.59;99574.34;1929471;100;25861;-80
2022/06/09 19:23:17;;;;;;;5.33;4.83;;;;;;;26.68;53.69;99574.07;1923079;100;25485;-78
2022/06/09 19:27:01;;;;;;;7.08;4.65;;;;;;;26.70;53.83;99562.35;1868453;103;25893;-77
2022/06/09 19:30:31;;;;;;;5.28;4.87;;;;;;;26.71;53.97;99562.73;1878103;103;25710;-76
2022/06/09 19:33:57;;;;;;;19.07;5.50;;;;;;;26.69;53.96;99567.77;1878322;102;26004;-75
2022/06/09 19:37:33;;;;;;;11.08;5.65;;;;;;;26.56;54.15;99563.12;1866730;103;26006;-77
2022/06/09 19:41:00;;;;;;;5.87;5.30;;;;;;;26.43;54.53;99562.03;1867054;103;25803;-75
2022/06/09 19:44:41;;;;;;;7.03;4.90;;;;;;;26.33;54.77;99562.16;1884371;99;26063;-78
2022/06/09 19:48:14;;;;;;;11.40;5.50;;;;;;;26.27;55.07;99561.14;1968251;98;25685;-75
2022/06/09 19:51:50;;;;;;;6.80;5.95;;;;;;;26.18;55.27;99575.84;1947761;100;25849;-75
2022/06/09 19:55:53;;;;;;;;;;;;;;;;;;;;;
2022/06/09 19:59:16;;;;;;;10.08;6.00;;;;;;;26.05;55.75;99599.67;1913970;101;26423;-76
2022/06/09 20:02:36;;;;;;;11.00;5.67;;;;;;;25.97;55.93;99598.36;1930295;100;26548;-76
2022/06/09 20:06:16;;;;;;;9.13;7.35;;;;;;;25.69;56.44;99609.11;1915119;96;25925;-76
2022/06/09 20:09:32;;;;;;;8.43;6.47;;;;;;;25.52;57.32;99621.11;1918670;101;25761;-76
2022/06/09 20:13:06;;;;;;;16.52;10.03;;;;;;;25.24;57.86;99638.94;1929401;99;26963;-77
2022/06/09 20:30:50;;;;;;;7.40;6.65;;;;;;;23.86;61.20;99695.31;2440640;75;25573;-79
2022/06/09 20:38:38;;;;;;;7.97;6.37;;;;;;;23.82;61.51;99694.15;2273708;85;25323;-76
2022/06/09 20:42:04;;;;;;;6.37;5.95;;;;;;;23.86;61.75;99694.41;2107935;92;25527;-77
2022/06/09 20:58:21;;;;;;;6.28;5.78;;;;;;;24.21;61.58;99700.91;1797506;108;25940;-78
2022/06/09 21:21:20;;;;;;;7.10;6.60;;;;;;;24.22;61.44;99734.59;1775421;109;25970;-83
2022/06/09 21:29:30;;;;;;;7.35;5.85;;;;;;;24.26;61.31;99745.52;1832270;102;25528;-82
2022/06/09 21:33:41;;;;;;;;;;;;;;;;;;;;;
2022/06/09 21:38:09;;;;;;;;;;;;;;;;;;;;;
2022/06/09 21:42:26;;;;;;;6.50;5.87;;;;;;;24.21;61.14;99779.02;1899763;101;26327;-79
2022/06/09 21:49:48;;;;;;;8.40;7.33;;;;;;;24.23;60.94;99789.59;1928989;100;25817;-79
2022/06/09 21:53:31;;;;;;;6.80;5.75;;;;;;;24.20;61.02;99773.30;1909866;100;25878;-78
2022/06/09 21:57:24;;;;;;;5.67;5.08;;;;;;;24.27;60.91;99779.23;1917336;98;25668;-79
2022/06/09 22:01:16;;;;;;;5.92;4.75;;;;;;;24.38;60.60;99785.42;1932511;101;25922;-79
2022/06/09 22:13:30;;;;;;;4.78;4.35;;;;;;;24.48;60.00;99785.00;1869799;104;25881;-78
2022/06/09 22:17:06;;;;;;;5.15;4.58;;;;;;;24.43;59.86;99772.80;1863876;103;26380;-78
2022/06/09 22:20:47;;;;;;;4.25;3.95;;;;;;;24.39;59.83;99768.03;1864010;104;26039;-82
2022/06/09 22:24:23;;;;;;;4.47;4.17;;;;;;;24.25;59.91;99767.77;1865695;104;26221;-77
2022/06/09 22:27:49;;;;;;;4.37;4.03;;;;;;;24.25;60.07;99762.44;1871408;103;25824;-79
2022/06/09 22:31:13;;;;;;;6.42;3.90;;;;;;;24.28;59.96;99752.98;1871000;99;25928;-77
2022/06/09 22:34:45;;;;;;;6.75;4.00;;;;;;;24.31;59.84;99752.00;1952053;98;25948;-78
2022/06/09 22:38:17;;;;;;;5.95;4.95;;;;;;;24.35;59.76;99752.26;1992848;97;25724;-79
2022/06/09 22:41:53;;;;;;;6.42;4.28;;;;;;;24.39;59.59;99747.19;1987394;98;25951;-78
2022/06/09 22:45:17;;;;;;;6.25;4.53;;;;;;;24.34;59.56;99752.73;1968738;98;25975;-78
2022/06/09 22:50:08;;;;;;;4.80;4.05;;;;;;;24.31;59.52;99761.32;1985468;98;25895;-78